Hlavní strana
METAR-TAF:

METAR-TAF

Letiště :

Nižnij Novgorod, Rusko

zeměpisná šířka: 56-19-48N, zeměpisná délka: 044-00E, výška: 78 m

Aktuální stav počasí

Zpráva byla vytvořena před 21 minutami, v 04:00 UTC
Jihozápadní vítr 4 kt
Teplota 5°C
Vlhkost vzduchu 87%
Tlak 1028 hPa
Viditelnost: 8000 m
Zataženo ve výšce 1100 ft

METAR: UWGG 180400Z 23002MPS 8000 OVC011 05/03 Q1028 R18L/190060 NOSIG

Čas: 07:21 (04:21 UTC)

Předpověď počasí

Zpráva byla vytvořena před 2 hodinami a 23 minutami, v 01:58 UTC
Předpověď platná od 18 v 03 UTC do 19 v 03 UTC
Jihozápadní vítr 6 kt
Viditelnost: 4000 m
Zataženo ve výšce 1100 ft
kouřmo
Dočasný
od 18 v 03 UTC do 18 v 15 UTC
Viditelnost: 1500 m
Zataženo ve výšce 400 ft
mrholení, kouřmo

TAF: UWGG 180158Z 1803/1903 22003MPS 4000 BR OVC011 TX04/1812Z TN01/1806Z TEMPO 1803/1815 1500 DZ BR OVC004

Stav a předpovědi počasí z více než 4 000 letišť (zprávy METAR a TAF).

Červené a žluté tečky na mapě představují dostupné meteorologické stanice.

Když kurzor umístíte na tečku, zobrazí se název stanice.

Pak kliknutím zobrazíte stav a předpověď počasí.

Chcete-li změnit mapu, kliknutím na zelené tlačítko se znaménkem +mapu přiblížíte, kliknutím na zelené tlačítko se znaménkem – mapu oddálíte a kliknutím na zelené šipky přejdete na sousední mapy.


METAR-TAF: